Time;durP1;ratioP1;P1;durP2;ratioP2;P2;SDS_P1;SDS_P2;PMS_P1;PMS_P2;Temp;Humidity;BMP_temperature;BMP_pressure;BME280_temperature;BME280_humidity;BME280_pressure;Samples;Min_cycle;Max_cycle;Signal;HPM_P1;HPM_P2
2023/02/04 00:01:56;;;;;;;12.80;2.87;;;7.30;99.90;;;;;;5051803;28;20651;-83
2023/02/04 00:04:22;;;;;;;41.40;1.43;;;7.40;99.90;;;;;;5053508;28;20279;-88
2023/02/04 00:06:47;;;;;;;7.33;1.33;;;7.30;99.90;;;;;;5054851;28;20205;-84
2023/02/04 00:09:15;;;;;;;2.77;0.40;;;7.30;99.90;;;;;;5055087;28;20543;-86
2023/02/04 00:11:41;;;;;;;4.20;0.87;;;7.20;99.90;;;;;;5022749;28;20188;-84
2023/02/04 00:14:07;;;;;;;3.43;1.63;;;7.30;99.90;;;;;;5038595;28;20326;-85
2023/02/04 00:16:32;;;;;;;3.43;1.67;;;7.30;99.90;;;;;;5055077;28;20179;-87
2023/02/04 00:18:58;;;;;;;0.20;0.20;;;7.30;99.90;;;;;;5037830;28;20201;-86
2023/02/04 00:21:24;;;;;;;0.77;0.77;;;7.30;99.90;;;;;;5021900;28;20272;-84
2023/02/04 00:23:50;;;;;;;1.43;1.33;;;7.30;99.90;;;;;;5021517;28;20219;-84
2023/02/04 00:26:16;;;;;;;1.53;1.03;;;7.30;99.90;;;;;;5038083;28;20216;-86
2023/02/04 00:28:41;;;;;;;2.03;1.33;;;7.30;99.90;;;;;;5072763;28;20636;-89
2023/02/04 00:31:07;;;;;;;0.30;0.30;;;7.30;99.90;;;;;;5055485;28;20356;-83
2023/02/04 00:33:33;;;;;;;10.90;1.47;;;7.30;99.90;;;;;;5054782;28;20177;-82
2023/02/04 00:35:58;;;;;;;9.73;5.17;;;7.30;99.90;;;;;;5054652;28;20647;-83
2023/02/04 00:38:24;;;;;;;0.67;0.67;;;7.30;99.90;;;;;;5021515;28;20662;-86
2023/02/04 00:40:50;;;;;;;0.93;0.73;;;7.30;99.90;;;;;;5021364;28;20227;-91
2023/02/04 00:43:16;;;;;;;0.40;0.40;;;7.30;99.90;;;;;;5037950;28;20174;-82
2023/02/04 00:45:41;;;;;;;12.63;0.97;;;7.30;99.90;;;;;;5038184;28;20305;-84
2023/02/04 00:48:07;;;;;;;10.47;1.10;;;7.30;99.90;;;;;;5038366;28;20645;-84
2023/02/04 00:50:38;;;;;;;1.27;1.03;;;7.20;99.90;;;;;;5038102;28;20272;-86
2023/02/04 00:53:04;;;;;;;2.23;2.10;;;7.20;99.90;;;;;;5054838;28;20185;-84
2023/02/04 00:55:30;;;;;;;0.63;0.60;;;7.20;99.90;;;;;;5054200;28;20216;-84
2023/02/04 00:57:56;;;;;;;1.97;0.97;;;7.20;99.90;;;;;;5071915;28;20209;-87
2023/02/04 01:00:22;;;;;;;1.03;1.03;;;7.20;99.90;;;;;;5037700;28;20182;-84
2023/02/04 01:02:47;;;;;;;1.00;1.00;;;7.20;99.90;;;;;;5037839;28;20192;-85
2023/02/04 01:05:13;;;;;;;4.33;1.43;;;7.20;99.90;;;;;;5020762;28;20225;-85
2023/02/04 01:07:39;;;;;;;8.77;3.23;;;7.30;99.90;;;;;;5021119;28;20189;-89
2023/02/04 01:10:05;;;;;;;2.37;2.13;;;7.30;99.90;;;;;;5054202;28;20193;-83
2023/02/04 01:12:31;;;;;;;1.00;1.00;;;7.20;99.90;;;;;;5037147;28;20708;-84
2023/02/04 01:14:57;;;;;;;1.40;1.27;;;7.30;99.90;;;;;;5019851;28;20220;-82
2023/02/04 01:17:22;;;;;;;6.93;2.33;;;7.30;99.90;;;;;;5053450;28;20334;-84
2023/02/04 01:19:48;;;;;;;2.00;1.90;;;7.30;99.90;;;;;;5053628;28;20205;-85
2023/02/04 01:22:14;;;;;;;12.37;1.77;;;7.30;99.90;;;;;;5053756;28;20217;-83
2023/02/04 01:24:40;;;;;;;0.90;0.90;;;7.30;99.90;;;;;;5037280;28;20181;-85
2023/02/04 01:27:05;;;;;;;4.73;2.40;;;7.30;99.90;;;;;;5037112;28;20182;-87
2023/02/04 01:29:31;;;;;;;3.13;1.43;;;7.30;99.90;;;;;;5071304;28;20185;-85
2023/02/04 01:31:57;;;;;;;13.93;1.70;;;7.40;99.90;;;;;;5053267;28;20185;-86
2023/02/04 01:34:24;;;;;;;1.53;1.43;;;7.40;99.90;;;;;;5020179;28;20177;-81
2023/02/04 01:36:50;;;;;;;0.10;0.10;;;7.40;99.90;;;;;;5020562;28;20178;-84
2023/02/04 01:39:16;;;;;;;5.83;2.03;;;7.40;99.90;;;;;;5053083;28;20221;-85
2023/02/04 01:41:42;;;;;;;4.37;1.80;;;7.40;99.90;;;;;;5036786;28;20600;-82
2023/02/04 01:44:08;;;;;;;18.83;2.80;;;7.40;99.90;;;;;;5036324;28;20632;-83
2023/02/04 01:46:36;;;;;;;2.77;1.43;;;7.40;99.90;;;;;;5036550;28;20205;-83
2023/02/04 01:49:05;;;;;;;4.27;3.17;;;7.40;99.90;;;;;;5053381;28;20192;-82
2023/02/04 01:51:31;;;;;;;11.13;1.50;;;7.40;99.90;;;;;;5071172;28;20698;-83
2023/02/04 01:53:59;;;;;;;7.53;1.53;;;7.40;99.90;;;;;;5036544;28;20272;-85
2023/02/04 01:56:26;;;;;;;1.10;1.10;;;7.40;99.90;;;;;;5053441;28;20169;-82
2023/02/04 01:58:53;;;;;;;22.53;1.80;;;7.40;99.90;;;;;;5053066;28;20236;-82
2023/02/04 02:01:42;;;;;;;14.43;2.40;;;7.40;99.90;;;;;;5071148;28;20181;-82
2023/02/04 02:04:10;;;;;;;7.00;2.07;;;7.40;99.90;;;;;;5049440;28;20244;-84
2023/02/04 02:06:38;;;;;;;7.90;0.80;;;7.40;99.90;;;;;;5049951;28;20181;-82
2023/02/04 02:09:04;;;;;;;2.73;1.83;;;7.40;99.90;;;;;;5049720;28;20232;-84
2023/02/04 02:11:31;;;;;;;0.60;0.60;;;7.30;99.90;;;;;;5050719;28;20653;-84
2023/02/04 02:13:57;;;;;;;2.13;1.57;;;7.40;99.90;;;;;;5049560;28;20208;-85
2023/02/04 02:16:23;;;;;;;1.70;1.33;;;7.30;99.90;;;;;;5049560;28;20756;-85
2023/02/04 02:18:52;;;;;;;6.77;1.13;;;7.30;99.90;;;;;;5049474;28;20232;-85
2023/02/04 02:21:28;;;;;;;11.33;0.80;;;7.30;99.90;;;;;;5049663;28;20255;-83
2023/02/04 02:23:56;;;;;;;23.27;3.70;;;7.30;99.90;;;;;;5050299;28;20615;-87
2023/02/04 02:26:23;;;;;;;2.40;0.70;;;7.30;99.90;;;;;;5032477;28;20178;-83
2023/02/04 02:28:50;;;;;;;7.93;1.97;;;7.30;99.90;;;;;;5049567;28;20189;-82
2023/02/04 02:31:19;;;;;;;1.93;1.53;;;7.30;99.90;;;;;;5050504;28;20182;-82
2023/02/04 02:33:45;;;;;;;5.17;1.43;;;7.30;99.90;;;;;;5050267;28;20174;-83
2023/02/04 02:36:11;;;;;;;0.40;0.40;;;7.20;99.90;;;;;;5049348;28;20185;-82
2023/02/04 02:38:38;;;;;;;13.07;1.80;;;7.20;99.90;;;;;;5049539;28;20202;-82
2023/02/04 02:41:04;;;;;;;3.47;1.20;;;7.20;99.90;;;;;;5032774;28;20256;-84
2023/02/04 02:43:30;;;;;;;2.47;1.40;;;7.20;99.90;;;;;;5050398;28;20495;-88
2023/02/04 02:45:58;;;;;;;16.20;2.43;;;7.20;99.90;;;;;;5048971;28;20192;-88
2023/02/04 02:48:24;;;;;;;4.77;0.73;;;7.20;99.90;;;;;;5032773;28;20178;-84
2023/02/04 02:50:50;;;;;;;1.40;1.30;;;7.20;99.90;;;;;;5049886;28;20174;-82
2023/02/04 02:53:18;;;;;;;1.70;1.03;;;7.20;99.90;;;;;;5050725;28;20689;-82
2023/02/04 02:55:44;;;;;;;1.70;1.03;;;7.20;99.90;;;;;;5049982;28;20178;-83
2023/02/04 02:58:31;;;;;;;4.13;3.73;;;7.10;99.90;;;;;;5049652;28;20209;-82
2023/02/04 03:00:58;;;;;;;1.30;0.80;;;7.10;99.90;;;;;;5048769;28;20624;-84
2023/02/04 03:03:31;;;;;;;5.27;2.03;;;7.10;99.90;;;;;;5048908;28;20181;-85
2023/02/04 03:06:03;;;;;;;2.57;1.13;;;7.10;99.90;;;;;;5048504;28;20230;-84
2023/02/04 03:08:29;;;;;;;2.03;1.30;;;7.10;99.90;;;;;;5048997;28;20607;-87
2023/02/04 03:10:55;;;;;;;1.43;1.33;;;7.00;99.90;;;;;;5032234;28;20228;-85
2023/02/04 03:13:21;;;;;;;5.43;2.23;;;7.00;99.90;;;;;;5031876;28;20247;-84
2023/02/04 03:15:47;;;;;;;0.97;0.93;;;7.00;99.90;;;;;;5015317;28;20317;-84
2023/02/04 03:18:16;;;;;;;1.17;1.07;;;7.00;99.90;;;;;;5032207;28;20755;-85
2023/02/04 03:20:42;;;;;;;1.43;1.03;;;7.00;99.90;;;;;;5050088;28;20189;-86
2023/02/04 03:23:08;;;;;;;4.33;3.00;;;7.00;99.90;;;;;;5048212;28;20174;-85
2023/02/04 03:25:34;;;;;;;1.60;1.43;;;7.00;99.90;;;;;;5048689;28;20174;-91
2023/02/04 03:28:00;;;;;;;6.50;2.47;;;7.00;99.90;;;;;;5048360;28;20212;-85
2023/02/04 03:30:26;;;;;;;8.90;1.50;;;7.10;99.90;;;;;;5048727;28;20183;-81
2023/02/04 03:32:52;;;;;;;18.33;2.20;;;7.10;99.90;;;;;;5049463;28;20320;-83
2023/02/04 03:35:19;;;;;;;5.00;1.83;;;7.10;99.90;;;;;;5049914;28;20751;-83
2023/02/04 03:37:44;;;;;;;1.17;1.07;;;7.10;99.90;;;;;;5049818;28;20179;-82
2023/02/04 03:40:11;;;;;;;4.07;1.60;;;7.10;99.90;;;;;;5035721;28;20202;-83
2023/02/04 03:42:37;;;;;;;1.43;1.23;;;7.10;99.90;;;;;;5053347;28;20501;-81
2023/02/04 03:45:03;;;;;;;14.33;1.27;;;7.10;99.90;;;;;;5052155;28;20210;-83
2023/02/04 03:47:29;;;;;;;3.13;1.33;;;7.10;99.90;;;;;;5052567;28;20605;-84
2023/02/04 03:49:55;;;;;;;3.20;0.83;;;7.10;99.90;;;;;;5035433;28;20268;-80
2023/02/04 03:52:20;;;;;;;0.70;0.70;;;7.10;99.90;;;;;;5035787;28;20239;-84
2023/02/04 03:54:46;;;;;;;16.63;2.17;;;7.10;99.90;;;;;;5052097;28;20281;-85
2023/02/04 03:57:12;;;;;;;7.23;5.70;;;7.10;99.90;;;;;;5035091;28;20209;-82
2023/02/04 03:59:38;;;;;;;4.77;2.10;;;7.10;99.90;;;;;;5051724;28;20198;-81
2023/02/04 04:02:07;;;;;;;21.73;3.70;;;7.10;99.90;;;;;;5052224;28;20273;-83
2023/02/04 04:04:32;;;;;;;10.03;3.27;;;7.10;99.90;;;;;;5019688;28;20283;-83
2023/02/04 04:06:58;;;;;;;7.03;0.97;;;7.00;99.90;;;;;;5035271;28;20193;-83
2023/02/04 04:09:24;;;;;;;5.10;1.73;;;7.10;99.90;;;;;;5053330;28;20182;-83
2023/02/04 04:11:50;;;;;;;1.77;1.50;;;7.10;99.90;;;;;;5051474;28;20186;-85
2023/02/04 04:14:15;;;;;;;8.37;3.53;;;7.00;99.90;;;;;;5035371;28;20236;-83
2023/02/04 04:16:41;;;;;;;14.10;3.03;;;7.10;99.90;;;;;;5051421;28;20232;-88
2023/02/04 04:19:07;;;;;;;3.17;2.57;;;7.10;99.90;;;;;;5035162;28;20304;-85
2023/02/04 04:21:33;;;;;;;3.23;2.93;;;7.10;99.90;;;;;;5034709;28;20250;-81
2023/02/04 04:23:58;;;;;;;7.03;2.17;;;7.10;99.90;;;;;;5018612;28;20704;-85
2023/02/04 04:26:24;;;;;;;2.30;0.93;;;7.10;99.90;;;;;;5050978;28;20182;-85
2023/02/04 04:28:50;;;;;;;5.70;1.43;;;7.00;99.90;;;;;;5034989;28;20197;-84
2023/02/04 04:31:16;;;;;;;9.40;2.20;;;7.10;99.90;;;;;;5051295;28;20182;-82
2023/02/04 04:33:41;;;;;;;4.03;1.33;;;7.10;99.90;;;;;;5034554;28;20650;-83
2023/02/04 04:36:07;;;;;;;1.77;1.73;;;7.10;99.90;;;;;;5052336;28;20190;-83
2023/02/04 04:38:33;;;;;;;7.10;1.63;;;7.10;99.90;;;;;;5050907;28;20414;-83
2023/02/04 04:40:59;;;;;;;14.83;2.47;;;7.10;99.90;;;;;;5052516;28;20281;-84
2023/02/04 04:43:24;;;;;;;5.83;2.17;;;7.10;99.90;;;;;;5050889;28;20269;-84
2023/02/04 04:45:50;;;;;;;6.03;1.77;;;7.10;99.90;;;;;;5034568;28;20616;-82
2023/02/04 04:48:16;;;;;;;1.40;0.57;;;7.10;99.90;;;;;;5034533;28;20189;-83
2023/02/04 04:50:41;;;;;;;20.83;1.73;;;7.10;99.90;;;;;;5017618;28;20170;-84
2023/02/04 04:53:10;;;;;;;4.43;2.67;;;7.10;99.90;;;;;;5034385;28;20578;-84
2023/02/04 04:55:39;;;;;;;16.60;1.80;;;7.10;99.90;;;;;;5034334;28;20192;-86
2023/02/04 04:58:06;;;;;;;1.60;1.47;;;7.10;99.90;;;;;;5050738;28;20185;-83
2023/02/04 05:00:32;;;;;;;13.23;1.03;;;7.10;99.90;;;;;;5050611;28;20194;-89
2023/02/04 05:02:58;;;;;;;16.03;3.67;;;7.10;99.90;;;;;;5050563;28;20182;-87
2023/02/04 05:05:24;;;;;;;5.67;1.47;;;7.10;99.90;;;;;;5050145;28;20679;-83
2023/02/04 05:07:49;;;;;;;13.17;2.17;;;7.10;99.90;;;;;;5034083;28;20226;-83
2023/02/04 05:10:16;;;;;;;8.43;1.67;;;7.10;99.90;;;;;;5017661;28;20323;-83
2023/02/04 05:12:41;;;;;;;5.47;2.50;;;7.10;99.90;;;;;;5034016;28;20276;-83
2023/02/04 05:15:07;;;;;;;8.97;2.50;;;7.10;99.90;;;;;;5051739;28;20281;-87
2023/02/04 05:17:33;;;;;;;6.37;2.83;;;7.10;99.90;;;;;;5033428;28;20186;-84
2023/02/04 05:19:59;;;;;;;24.83;1.63;;;7.10;99.90;;;;;;5049755;28;20198;-82
2023/02/04 05:22:25;;;;;;;16.60;4.10;;;7.00;99.90;;;;;;5033543;28;20279;-86
2023/02/04 05:24:50;;;;;;;4.57;3.37;;;7.10;99.90;;;;;;5050070;28;20197;-84
2023/02/04 05:27:16;;;;;;;6.23;1.63;;;7.10;99.90;;;;;;5017174;28;20265;-86
2023/02/04 05:29:42;;;;;;;10.00;3.00;;;7.10;99.90;;;;;;5033562;28;20534;-85
2023/02/04 05:32:08;;;;;;;1.83;1.57;;;7.20;99.90;;;;;;5050208;28;20288;-84
2023/02/04 05:34:33;;;;;;;4.30;1.63;;;7.10;99.90;;;;;;5033782;28;20186;-84
2023/02/04 05:36:59;;;;;;;13.70;3.03;;;7.10;99.90;;;;;;5051438;28;20178;-83
2023/02/04 05:39:25;;;;;;;11.27;2.70;;;7.10;99.90;;;;;;5050065;28;20271;-83
2023/02/04 05:41:50;;;;;;;5.87;1.87;;;7.20;99.90;;;;;;5050169;28;20193;-83
2023/02/04 05:44:16;;;;;;;11.20;2.47;;;7.20;99.90;;;;;;5033400;28;20571;-90
2023/02/04 05:46:42;;;;;;;14.87;2.57;;;7.20;99.90;;;;;;5051456;28;20185;-83
2023/02/04 05:49:07;;;;;;;9.33;1.30;;;7.10;99.90;;;;;;5049759;28;20186;-83
2023/02/04 05:51:33;;;;;;;7.03;3.07;;;7.10;99.90;;;;;;5050212;28;20303;-88
2023/02/04 05:53:59;;;;;;;2.57;1.03;;;7.10;99.90;;;;;;5050810;28;20201;-84
2023/02/04 05:56:25;;;;;;;8.40;2.37;;;7.00;99.90;;;;;;5032707;28;20305;-84
2023/02/04 05:58:51;;;;;;;13.60;2.13;;;6.90;99.90;;;;;;5032711;28;20345;-84
2023/02/04 06:01:16;;;;;;;20.67;3.13;;;6.80;99.90;;;;;;5049672;28;20564;-82
2023/02/04 06:03:42;;;;;;;6.57;4.03;;;6.80;99.90;;;;;;5033906;28;20189;-82
2023/02/04 06:06:08;;;;;;;9.33;2.77;;;6.70;99.90;;;;;;5053155;28;20182;-82
2023/02/04 06:08:34;;;;;;;4.33;1.67;;;6.70;99.90;;;;;;5036394;28;20197;-88
2023/02/04 06:10:59;;;;;;;2.67;1.07;;;6.60;99.90;;;;;;5019511;28;20643;-82
2023/02/04 06:13:25;;;;;;;2.77;1.97;;;6.50;99.90;;;;;;5036092;28;20173;-83
2023/02/04 06:15:51;;;;;;;1.60;0.93;;;6.50;99.90;;;;;;5035829;28;20239;-82
2023/02/04 06:18:17;;;;;;;6.00;2.53;;;6.40;99.90;;;;;;5035478;28;20188;-86
2023/02/04 06:20:42;;;;;;;3.67;1.93;;;6.20;99.90;;;;;;5052548;28;20182;-82
2023/02/04 06:23:08;;;;;;;9.23;1.90;;;6.10;99.90;;;;;;5070476;28;20174;-81
2023/02/04 06:25:34;;;;;;;10.73;1.63;;;5.80;99.90;;;;;;5052600;28;20514;-85
2023/02/04 06:28:00;;;;;;;17.07;2.33;;;5.80;99.90;;;;;;5052559;28;20585;-81
2023/02/04 06:30:25;;;;;;;2.40;1.97;;;5.70;99.90;;;;;;5036217;28;20213;-83
2023/02/04 06:32:51;;;;;;;2.83;2.30;;;5.60;99.90;;;;;;5052708;28;20177;-83
2023/02/04 06:35:17;;;;;;;3.53;1.13;;;5.60;99.90;;;;;;5036136;28;20229;-85
2023/02/04 06:37:43;;;;;;;0.93;0.50;;;5.60;99.90;;;;;;5052624;28;20235;-87
2023/02/04 06:40:09;;;;;;;3.20;1.90;;;5.50;99.90;;;;;;5070344;28;20235;-83
2023/02/04 06:42:35;;;;;;;1.27;1.23;;;5.50;99.90;;;;;;5019700;28;20216;-82
2023/02/04 06:45:01;;;;;;;7.87;0.70;;;5.50;99.90;;;;;;5070094;28;20213;-82
2023/02/04 06:47:26;;;;;;;0.57;0.57;;;5.40;99.90;;;;;;5019214;28;20196;-83
2023/02/04 06:49:52;;;;;;;9.13;1.87;;;5.40;99.90;;;;;;5018968;28;20181;-85
2023/02/04 06:52:18;;;;;;;0.40;0.40;;;5.40;99.90;;;;;;5035647;28;20169;-82
2023/02/04 06:54:44;;;;;;;1.63;0.60;;;5.40;99.90;;;;;;5019267;28;20181;-81
2023/02/04 06:57:10;;;;;;;3.47;1.17;;;5.50;99.90;;;;;;5035475;28;20277;-82
2023/02/04 06:59:38;;;;;;;1.90;1.80;;;5.50;99.90;;;;;;5035147;28;20772;-84
2023/02/04 07:02:05;;;;;;;2.27;0.63;;;5.50;99.90;;;;;;5051940;28;20185;-82
2023/02/04 07:04:31;;;;;;;4.03;0.70;;;5.50;99.90;;;;;;5068605;28;20806;-84
2023/02/04 07:06:57;;;;;;;13.40;1.27;;;5.50;99.90;;;;;;5068753;28;20193;-88
2023/02/04 07:09:23;;;;;;;2.07;1.93;;;5.50;99.90;;;;;;5067883;28;20189;-84
2023/02/04 07:11:48;;;;;;;1.50;1.10;;;5.30;99.90;;;;;;5050429;28;20266;-85
2023/02/04 07:14:14;;;;;;;0.83;0.83;;;5.30;99.90;;;;;;5051111;28;20204;-82
2023/02/04 07:16:40;;;;;;;2.10;1.80;;;5.20;99.90;;;;;;5069030;28;20631;-86
2023/02/04 07:19:06;;;;;;;1.70;1.33;;;5.20;99.90;;;;;;5034659;28;20205;-87
2023/02/04 07:21:32;;;;;;;0.30;0.30;;;5.20;99.90;;;;;;5051159;28;20617;-83
2023/02/04 07:23:57;;;;;;;1.20;0.50;;;5.20;99.90;;;;;;5034293;28;20177;-90
2023/02/04 07:26:23;;;;;;;3.50;2.03;;;5.20;99.90;;;;;;5068784;28;20619;-84
2023/02/04 07:28:49;;;;;;;0.70;0.70;;;5.20;99.90;;;;;;5018222;28;20188;-83
2023/02/04 07:31:14;;;;;;;3.20;1.33;;;5.10;99.90;;;;;;5034683;28;20177;-83
2023/02/04 07:33:40;;;;;;;0.57;0.57;;;5.10;99.90;;;;;;5051558;28;20232;-88
2023/02/04 07:36:06;;;;;;;2.33;1.10;;;5.10;99.90;;;;;;5051216;28;20591;-87
2023/02/04 07:38:32;;;;;;;1.97;1.13;;;5.10;99.90;;;;;;5051135;28;20209;-84
2023/02/04 07:40:58;;;;;;;1.33;0.67;;;5.20;99.90;;;;;;5051696;28;20281;-89
2023/02/04 07:43:24;;;;;;;0.63;0.63;;;5.20;99.90;;;;;;5035373;28;20760;-84
2023/02/04 07:45:50;;;;;;;1.77;1.30;;;5.30;99.90;;;;;;5035083;28;20540;-84
2023/02/04 07:48:15;;;;;;;3.30;2.00;;;5.30;99.90;;;;;;5051290;28;20184;-84
2023/02/04 07:50:44;;;;;;;3.70;2.07;;;5.40;99.90;;;;;;5050650;28;20184;-84
2023/02/04 07:53:10;;;;;;;1.27;1.10;;;5.40;99.90;;;;;;5018481;28;20209;-84
2023/02/04 07:55:35;;;;;;;0.20;0.20;;;5.40;99.90;;;;;;5033973;28;20181;-84
2023/02/04 07:58:02;;;;;;;0.20;0.20;;;5.40;99.90;;;;;;5034272;28;20180;-83
2023/02/04 08:00:27;;;;;;;6.90;1.07;;;5.40;99.90;;;;;;5050157;28;20677;-85
2023/02/04 08:02:53;;;;;;;1.97;1.87;;;5.40;99.90;;;;;;5050872;28;20235;-87
2023/02/04 08:05:19;;;;;;;1.60;0.57;;;5.50;99.90;;;;;;5034136;28;20283;-83
2023/02/04 08:07:44;;;;;;;0.60;0.60;;;5.40;99.90;;;;;;5034484;28;20192;-83
2023/02/04 08:10:11;;;;;;;0.63;0.63;;;5.50;99.90;;;;;;5068585;28;20235;-84
2023/02/04 08:12:37;;;;;;;1.03;0.60;;;5.70;99.90;;;;;;5034492;28;20631;-83
2023/02/04 08:15:03;;;;;;;1.20;1.17;;;5.60;99.90;;;;;;5017271;28;20185;-87
2023/02/04 08:17:29;;;;;;;2.37;1.50;;;5.80;99.90;;;;;;5051380;28;20255;-86
2023/02/04 08:19:55;;;;;;;1.47;1.40;;;6.00;99.90;;;;;;5039858;28;20209;-88
2023/02/04 08:22:21;;;;;;;1.03;1.03;;;6.30;99.90;;;;;;5043708;28;20181;-85
2023/02/04 08:24:47;;;;;;;1.57;1.53;;;6.90;99.90;;;;;;5052457;28;20173;-85
2023/02/04 08:27:13;;;;;;;4.00;0.90;;;7.30;99.90;;;;;;5037793;28;20269;-90
2023/02/04 08:29:39;;;;;;;1.40;1.30;;;7.60;99.90;;;;;;5072197;28;20251;-83
2023/02/04 08:32:05;;;;;;;0.87;0.87;;;7.60;99.90;;;;;;5054323;28;20653;-88
2023/02/04 08:34:31;;;;;;;1.57;1.33;;;7.40;99.90;;;;;;5054814;28;20201;-86
2023/02/04 08:36:56;;;;;;;8.57;1.30;;;7.20;99.90;;;;;;5054863;28;20639;-90
2023/02/04 08:39:22;;;;;;;1.73;1.23;;;7.30;99.90;;;;;;5038152;28;20197;-85
2023/02/04 08:41:50;;;;;;;3.33;1.17;;;7.20;99.90;;;;;;5021744;28;20181;-86
2023/02/04 08:44:16;;;;;;;1.13;1.03;;;7.30;99.90;;;;;;5021546;28;20173;-85
2023/02/04 08:46:41;;;;;;;0.80;0.80;;;7.30;99.90;;;;;;5037405;28;20188;-84
2023/02/04 08:49:07;;;;;;;0.90;0.80;;;7.20;99.90;;;;;;5037424;28;20193;-88
2023/02/04 08:51:33;;;;;;;3.67;1.37;;;7.20;99.90;;;;;;5053963;28;20630;-84
2023/02/04 08:53:59;;;;;;;0.80;0.80;;;7.10;99.90;;;;;;5054059;28;20256;-88
2023/02/04 08:56:24;;;;;;;3.27;1.00;;;7.00;99.90;;;;;;5054251;28;20239;-83
2023/02/04 08:58:53;;;;;;;7.13;0.83;;;7.00;99.90;;;;;;5054470;28;20255;-88
2023/02/04 09:01:19;;;;;;;3.03;1.50;;;7.00;99.90;;;;;;5038525;28;20181;-86
2023/02/04 09:03:45;;;;;;;2.90;2.00;;;6.90;99.90;;;;;;5054277;28;20170;-88
2023/02/04 09:06:11;;;;;;;0.43;0.43;;;7.00;99.90;;;;;;5053630;28;20233;-86
2023/02/04 09:08:37;;;;;;;0.67;0.67;;;7.10;99.90;;;;;;5038183;28;20205;-87
2023/02/04 09:11:03;;;;;;;4.87;0.67;;;7.10;99.90;;;;;;5054531;28;20307;-84
2023/02/04 09:13:31;;;;;;;1.97;1.47;;;7.20;99.90;;;;;;5054397;28;20605;-86
2023/02/04 09:15:57;;;;;;;1.73;1.10;;;7.40;99.90;;;;;;5054571;28;20178;-89
2023/02/04 09:18:24;;;;;;;4.73;0.50;;;7.50;99.90;;;;;;5054147;28;20651;-85
2023/02/04 09:20:51;;;;;;;0.70;0.70;;;7.40;99.90;;;;;;5053748;28;20196;-85
2023/02/04 09:23:21;;;;;;;3.83;2.23;;;7.40;99.90;;;;;;5054367;28;20180;-87
2023/02/04 09:25:50;;;;;;;3.50;1.20;;;7.30;99.90;;;;;;5071738;28;20187;-85
2023/02/04 09:28:16;;;;;;;0.23;0.23;;;7.20;99.90;;;;;;5053924;28;20174;-86
2023/02/04 09:30:43;;;;;;;2.77;1.23;;;7.10;99.90;;;;;;5020848;28;20486;-85
2023/02/04 09:33:12;;;;;;;2.93;0.87;;;7.10;99.90;;;;;;5054171;28;20700;-85
2023/02/04 09:35:38;;;;;;;4.43;2.30;;;7.10;99.90;;;;;;5053644;28;20177;-85
2023/02/04 09:38:04;;;;;;;4.40;1.53;;;7.10;99.90;;;;;;5054099;28;20177;-88
2023/02/04 09:40:36;;;;;;;0.60;0.60;;;7.30;99.90;;;;;;5053385;28;20686;-82
2023/02/04 09:43:04;;;;;;;2.30;2.20;;;7.40;99.90;;;;;;5053853;28;20177;-84
2023/02/04 09:45:33;;;;;;;0.20;0.20;;;7.60;99.90;;;;;;5053310;28;20193;-85
2023/02/04 09:48:03;;;;;;;10.13;1.87;;;7.70;99.90;;;;;;5053533;28;20238;-85
2023/02/04 09:50:33;;;;;;;3.07;1.07;;;7.80;99.90;;;;;;5053019;28;20169;-83
2023/02/04 09:53:05;;;;;;;0.33;0.33;;;7.80;99.90;;;;;;5053125;28;20166;-85
2023/02/04 09:55:37;;;;;;;2.00;0.97;;;7.70;99.90;;;;;;5053180;28;20180;-83
2023/02/04 09:58:11;;;;;;;5.37;0.93;;;7.70;99.90;;;;;;5053522;28;20177;-85
2023/02/04 10:00:37;;;;;;;1.90;1.03;;;7.50;99.90;;;;;;5071050;28;20192;-83
2023/02/04 10:03:10;;;;;;;4.20;0.93;;;7.70;99.90;;;;;;5036929;28;20184;-84
2023/02/04 10:05:36;;;;;;;0.43;0.43;;;7.70;99.90;;;;;;5053200;28;20312;-83
2023/02/04 10:08:03;;;;;;;0.93;0.93;;;7.80;99.90;;;;;;5052979;28;20709;-84
2023/02/04 10:10:30;;;;;;;1.93;0.77;;;7.70;99.90;;;;;;5052902;28;20268;-85
2023/02/04 10:12:59;;;;;;;5.30;1.17;;;7.60;99.90;;;;;;5053498;28;20178;-87
2023/02/04 10:15:25;;;;;;;1.17;0.50;;;7.70;99.90;;;;;;5052738;28;20665;-85
2023/02/04 10:17:56;;;;;;;2.73;1.47;;;7.80;99.90;;;;;;5037150;28;20510;-92
2023/02/04 10:20:23;;;;;;;4.03;1.20;;;7.80;99.90;;;;;;5053070;28;20189;-88
2023/02/04 10:22:52;;;;;;;4.43;1.20;;;7.90;99.90;;;;;;5053584;28;20192;-83
2023/02/04 10:25:20;;;;;;;5.20;1.90;;;8.00;99.90;;;;;;5052827;28;20180;-89
2023/02/04 10:27:51;;;;;;;6.70;0.63;;;8.10;99.90;;;;;;5052796;28;20178;-85
2023/02/04 10:30:26;;;;;;;11.13;1.57;;;8.20;99.90;;;;;;5052574;28;20361;-84
2023/02/04 10:32:52;;;;;;;1.33;1.03;;;8.10;99.90;;;;;;5052246;28;20611;-83
2023/02/04 10:35:20;;;;;;;3.97;1.57;;;8.20;99.90;;;;;;5055425;28;20392;-86
2023/02/04 10:37:47;;;;;;;0.30;0.30;;;8.10;99.90;;;;;;5075714;28;20185;-89
2023/02/04 10:40:29;;;;;;;5.43;0.40;;;8.30;99.90;;;;;;5035942;28;20300;-85
2023/02/04 10:42:55;;;;;;;0.93;0.70;;;8.50;99.90;;;;;;5052585;28;20201;-84
2023/02/04 10:45:29;;;;;;;0.70;0.70;;;8.50;99.90;;;;;;5052570;28;20404;-85
2023/02/04 10:47:56;;;;;;;1.27;1.07;;;8.50;99.90;;;;;;5034701;28;20188;-86
2023/02/04 10:50:24;;;;;;;5.03;0.60;;;8.60;99.90;;;;;;5070038;28;20181;-84
2023/02/04 10:54:28;;;;;;;4.07;0.57;;;8.50;99.90;;;;;;5052583;28;20218;-88
2023/02/04 10:55:46;;;;;;;2.53;0.40;;;8.50;99.90;;;;;;5070029;28;20177;-86
2023/02/04 10:58:16;;;;;;;3.40;0.90;;;8.60;99.90;;;;;;5052105;28;20639;-84
2023/02/04 11:00:42;;;;;;;2.10;2.00;;;8.50;99.90;;;;;;5052255;28;20562;-84
2023/02/04 11:03:25;;;;;;;0.50;0.50;;;8.60;99.90;;;;;;5052669;28;20188;-85
2023/02/04 11:05:54;;;;;;;2.10;0.53;;;8.60;99.90;;;;;;5051906;28;20221;-84
2023/02/04 11:08:29;;;;;;;3.57;1.37;;;8.80;99.90;;;;;;5052035;28;20188;-91
2023/02/04 11:10:59;;;;;;;4.73;0.93;;;8.80;99.90;;;;;;5052301;28;20187;-84
2023/02/04 11:13:38;;;;;;;0.60;0.60;;;8.60;99.90;;;;;;5052338;28;20173;-85
2023/02/04 11:16:09;;;;;;;1.93;1.00;;;8.80;99.90;;;;;;5052186;28;20184;-86
2023/02/04 11:18:54;;;;;;;1.10;1.07;;;9.00;99.90;;;;;;5069856;28;20199;-84
2023/02/04 11:21:28;;;;;;;1.03;1.03;;;9.00;99.90;;;;;;5052087;28;20189;-84
2023/02/04 11:24:14;;;;;;;3.97;0.93;;;9.10;99.90;;;;;;5052166;28;20184;-86
2023/02/04 11:26:44;;;;;;;1.00;0.50;;;9.10;99.90;;;;;;5069690;28;20252;-85
2023/02/04 11:29:41;;;;;;;0.77;0.63;;;9.10;99.90;;;;;;5052771;28;20181;-85
2023/02/04 11:32:30;;;;;;;4.30;0.60;;;8.90;99.90;;;;;;5044385;28;20231;-84
2023/02/04 11:35:27;;;;;;;4.90;1.80;;;8.80;99.90;;;;;;5052572;28;20166;-85
2023/02/04 11:37:53;;;;;;;1.50;0.40;;;8.80;99.90;;;;;;5049201;28;20247;-83
2023/02/04 11:40:33;;;;;;;0.63;0.63;;;8.90;99.90;;;;;;5051851;28;20292;-85
2023/02/04 11:43:09;;;;;;;1.80;1.70;;;8.90;99.90;;;;;;5051582;28;20168;-85
2023/02/04 11:45:36;;;;;;;1.60;1.50;;;8.90;99.90;;;;;;5051590;28;20498;-87
2023/02/04 11:48:11;;;;;;;8.23;1.80;;;9.10;99.90;;;;;;5051723;28;20174;-85
2023/02/04 11:50:40;;;;;;;3.90;0.77;;;9.20;99.90;;;;;;5069429;28;20173;-86
2023/02/04 11:53:09;;;;;;;1.40;0.67;;;9.30;99.90;;;;;;5036391;28;20204;-84
2023/02/04 11:55:43;;;;;;;3.03;1.03;;;9.40;99.90;;;;;;5069161;28;20180;-84
2023/02/04 11:58:17;;;;;;;6.20;1.10;;;9.50;99.90;;;;;;5070093;28;20254;-87
2023/02/04 12:00:43;;;;;;;9.53;1.20;;;9.50;99.90;;;;;;5055580;28;20174;-84
2023/02/04 12:03:26;;;;;;;3.93;0.80;;;9.50;99.90;;;;;;5055483;28;20192;-85
2023/02/04 12:05:55;;;;;;;0.63;0.63;;;9.40;99.90;;;;;;5055153;28;20320;-84
2023/02/04 12:08:21;;;;;;;2.60;1.37;;;9.20;99.90;;;;;;5036153;28;20270;-84
2023/02/04 12:10:59;;;;;;;0.30;0.30;;;9.10;99.90;;;;;;5054958;28;20173;-86
2023/02/04 12:13:25;;;;;;;8.07;1.50;;;9.00;99.90;;;;;;5072872;28;20197;-84
2023/02/04 12:15:57;;;;;;;3.47;0.40;;;9.10;99.90;;;;;;5054956;28;20478;-85
2023/02/04 12:18:22;;;;;;;1.50;0.47;;;9.00;99.90;;;;;;5055360;28;20228;-87
2023/02/04 12:20:48;;;;;;;4.20;0.83;;;9.10;99.90;;;;;;5055228;28;20650;-84
2023/02/04 12:23:14;;;;;;;1.07;0.70;;;8.90;99.90;;;;;;5038665;28;20748;-85
2023/02/04 12:25:40;;;;;;;0.60;0.40;;;9.00;99.90;;;;;;5054777;28;20220;-84
2023/02/04 12:28:05;;;;;;;1.30;1.17;;;8.90;99.90;;;;;;5038407;28;20180;-85
2023/02/04 12:30:31;;;;;;;6.77;1.07;;;9.00;99.90;;;;;;5038446;28;20185;-85
2023/02/04 12:32:57;;;;;;;9.33;0.70;;;9.00;99.90;;;;;;5054752;28;20330;-85
2023/02/04 12:35:23;;;;;;;2.30;1.70;;;9.10;99.90;;;;;;5021609;28;20177;-85
2023/02/04 12:37:48;;;;;;;1.27;1.17;;;9.20;99.90;;;;;;5038366;28;20193;-84
2023/02/04 12:40:19;;;;;;;0.57;0.50;;;9.20;99.90;;;;;;5055031;28;20205;-86
2023/02/04 12:42:45;;;;;;;13.63;1.00;;;9.20;99.90;;;;;;5072971;28;20174;-83
2023/02/04 12:45:13;;;;;;;0.60;0.60;;;9.20;99.90;;;;;;5055298;28;20334;-87
2023/02/04 12:47:39;;;;;;;0.40;0.40;;;9.30;99.90;;;;;;5054984;28;20239;-86
2023/02/04 12:50:05;;;;;;;1.13;1.13;;;9.30;99.90;;;;;;5054127;28;20614;-88
2023/02/04 12:52:31;;;;;;;1.13;0.60;;;9.40;99.90;;;;;;5055283;28;20662;-85
2023/02/04 12:54:57;;;;;;;3.60;1.70;;;9.50;99.90;;;;;;5060987;28;20367;-85
2023/02/04 12:57:23;;;;;;;5.30;0.90;;;9.70;99.90;;;;;;5021797;28;20178;-87